createdAt,value
2024-04-10T00:01:06.093Z,3.03
2024-04-10T00:03:33.322Z,3.40
2024-04-10T00:06:00.837Z,2.85
2024-04-10T00:08:27.783Z,3.40
2024-04-10T00:10:54.944Z,3.10
2024-04-10T00:13:21.860Z,2.92
2024-04-10T00:16:01.528Z,3.22
2024-04-10T00:18:29.741Z,3.03
2024-04-10T00:20:57.525Z,3.70
2024-04-10T00:23:24.571Z,3.17
2024-04-10T00:25:58.414Z,3.35
2024-04-10T00:28:26.050Z,3.30
2024-04-10T00:30:53.092Z,3.10
2024-04-10T00:33:20.392Z,3.30
2024-04-10T00:36:02.665Z,3.10
2024-04-10T00:38:33.411Z,3.22
2024-04-10T00:41:02.299Z,3.50
2024-04-10T00:43:29.308Z,3.20
2024-04-10T00:46:04.206Z,3.60
2024-04-10T00:48:31.354Z,3.07
2024-04-10T00:50:58.693Z,3.08
2024-04-10T00:53:25.572Z,3.25
2024-04-10T00:55:52.438Z,3.10
2024-04-10T00:58:19.282Z,3.53
2024-04-10T01:00:46.216Z,3.20
2024-04-10T01:03:13.165Z,3.10
2024-04-10T01:05:40.112Z,3.40
2024-04-10T01:08:07.419Z,3.10
2024-04-10T01:10:35.029Z,3.20
2024-04-10T01:13:02.261Z,3.03
2024-04-10T01:15:29.089Z,2.80
2024-04-10T01:17:56.195Z,3.10
2024-04-10T01:20:23.159Z,2.70
2024-04-10T01:22:52.177Z,2.90
2024-04-10T01:25:19.107Z,2.50
2024-04-10T01:27:45.947Z,2.20
2024-04-10T01:30:12.788Z,2.50
2024-04-10T01:32:39.751Z,2.60
2024-04-10T01:35:06.940Z,2.67
2024-04-10T01:37:33.929Z,2.53
2024-04-10T01:40:00.766Z,2.17
2024-04-10T01:42:27.564Z,2.40
2024-04-10T01:44:54.381Z,2.30
2024-04-10T01:47:23.755Z,2.55
2024-04-10T01:49:51.433Z,2.30
2024-04-10T01:52:18.336Z,2.05
2024-04-10T01:54:45.865Z,2.78
2024-04-10T01:57:12.708Z,2.20
2024-04-10T01:59:39.576Z,2.78
2024-04-10T02:02:06.449Z,2.67
2024-04-10T02:04:33.359Z,2.60
2024-04-10T02:07:00.188Z,2.45
2024-04-10T02:09:27.028Z,2.60
2024-04-10T02:11:53.949Z,2.78
2024-04-10T02:14:20.917Z,1.93
2024-04-10T02:16:47.909Z,2.50
2024-04-10T02:19:14.853Z,1.98
2024-04-10T02:21:41.776Z,2.10
2024-04-10T02:24:08.757Z,2.30
2024-04-10T02:26:35.696Z,2.03
2024-04-10T02:29:02.609Z,2.05
2024-04-10T02:31:29.489Z,2.47
2024-04-10T02:33:56.449Z,2.20
2024-04-10T02:36:23.459Z,2.30
2024-04-10T02:38:50.321Z,2.00
2024-04-10T02:41:17.204Z,2.10
2024-04-10T02:43:44.164Z,2.00
2024-04-10T02:46:11.740Z,2.15
2024-04-10T02:48:38.615Z,2.05
2024-04-10T02:51:07.590Z,1.93
2024-04-10T02:53:34.743Z,2.13
2024-04-10T02:56:01.624Z,2.40
2024-04-10T02:58:28.465Z,1.63
2024-04-10T03:00:56.239Z,1.92
2024-04-10T03:03:24.090Z,1.63
2024-04-10T03:06:07.397Z,1.98
2024-04-10T03:08:35.187Z,1.98
2024-04-10T03:11:02.932Z,1.65
2024-04-10T03:13:29.856Z,1.80
2024-04-10T03:15:56.706Z,1.27
2024-04-10T03:18:23.598Z,1.70
2024-04-10T03:20:50.507Z,1.75
2024-04-10T03:23:17.787Z,1.60
2024-04-10T03:25:44.809Z,1.70
2024-04-10T03:28:11.944Z,1.60
2024-04-10T03:30:38.911Z,1.63
2024-04-10T03:33:06.051Z,1.80
2024-04-10T03:35:33.076Z,1.60
2024-04-10T03:37:59.982Z,1.67
2024-04-10T03:40:27.010Z,1.50
2024-04-10T03:42:55.055Z,1.50
2024-04-10T03:45:21.939Z,1.65
2024-04-10T03:47:50.337Z,1.60
2024-04-10T03:50:19.535Z,2.03
2024-04-10T03:52:46.800Z,1.83
2024-04-10T03:55:13.718Z,1.70
2024-04-10T03:57:41.478Z,1.52
2024-04-10T04:00:09.477Z,1.52
2024-04-10T04:02:40.616Z,1.58
2024-04-10T04:05:07.799Z,1.50
2024-04-10T04:07:34.899Z,1.90
2024-04-10T04:10:02.342Z,1.90
2024-04-10T04:12:29.300Z,1.83
2024-04-10T04:14:56.175Z,1.70
2024-04-10T04:17:24.259Z,1.50
2024-04-10T04:19:51.266Z,1.60
2024-04-10T04:22:18.120Z,1.63
2024-04-10T04:24:44.984Z,1.60
2024-04-10T04:27:13.055Z,1.90
2024-04-10T04:29:40.055Z,1.70
2024-04-10T04:32:07.385Z,1.80
2024-04-10T04:34:34.334Z,1.95
2024-04-10T04:37:01.337Z,2.53
2024-04-10T04:39:28.211Z,1.77
2024-04-10T04:41:55.052Z,1.53
2024-04-10T04:44:21.980Z,1.88
2024-04-10T04:46:50.830Z,2.10
2024-04-10T04:49:17.827Z,1.85
2024-04-10T04:51:44.623Z,1.77
2024-04-10T04:54:11.984Z,1.50
2024-04-10T04:56:38.901Z,2.25
2024-04-10T04:59:05.852Z,2.70
2024-04-10T05:01:32.733Z,2.25
2024-04-10T05:04:18.146Z,2.35
2024-04-10T05:06:45.090Z,1.83
2024-04-10T05:09:11.951Z,2.22
2024-04-10T05:11:39.125Z,2.00
2024-04-10T05:14:06.934Z,2.13
2024-04-10T05:16:34.479Z,2.00
2024-04-10T05:19:06.285Z,2.60
2024-04-10T05:21:33.980Z,3.00
2024-04-10T05:24:00.952Z,2.40
2024-04-10T05:26:27.999Z,2.20
2024-04-10T05:28:54.910Z,2.55
2024-04-10T05:31:21.790Z,2.03
2024-04-10T05:33:48.772Z,2.75
2024-04-10T05:36:15.742Z,2.80
2024-04-10T05:38:42.608Z,4.53
2024-04-10T05:41:09.587Z,5.88
2024-04-10T05:43:36.558Z,4.70
2024-04-10T05:46:04.218Z,5.63
2024-04-10T05:48:31.327Z,5.05
2024-04-10T05:51:01.763Z,5.35
2024-04-10T05:53:28.876Z,4.25
2024-04-10T05:55:55.853Z,3.90
2024-04-10T05:58:22.782Z,4.13
2024-04-10T06:00:50.999Z,4.85
2024-04-10T06:03:19.380Z,5.57
2024-04-10T06:05:46.408Z,5.55
2024-04-10T06:08:13.346Z,4.10
2024-04-10T06:10:40.228Z,4.25
2024-04-10T06:13:07.071Z,4.30
2024-04-10T06:15:33.973Z,4.53
2024-04-10T06:18:00.848Z,4.97
2024-04-10T06:20:27.792Z,3.50
2024-04-10T06:22:54.842Z,3.33
2024-04-10T06:25:21.759Z,3.22
2024-04-10T06:27:48.843Z,3.45
2024-04-10T06:30:15.780Z,4.50
2024-04-10T06:32:42.809Z,4.33
2024-04-10T06:35:09.966Z,4.70
2024-04-10T06:37:36.905Z,4.68
2024-04-10T06:40:04.001Z,4.85
2024-04-10T06:42:30.940Z,4.57
2024-04-10T06:44:57.789Z,3.60
2024-04-10T06:47:24.796Z,4.78
2024-04-10T06:49:52.751Z,5.32
2024-04-10T06:52:19.673Z,4.80
2024-04-10T06:54:46.506Z,5.15
2024-04-10T06:57:13.432Z,4.50
2024-04-10T06:59:40.342Z,5.20
2024-04-10T07:02:07.262Z,5.47
2024-04-10T07:04:34.287Z,5.32
2024-04-10T07:07:04.930Z,6.78
2024-04-10T07:09:31.764Z,6.27
2024-04-10T07:11:58.687Z,5.65
2024-04-10T07:14:25.676Z,6.93
2024-04-10T07:16:53.356Z,8.85
2024-04-10T07:19:20.287Z,8.43
2024-04-10T07:21:47.159Z,6.13
2024-04-10T07:24:14.562Z,7.28
2024-04-10T07:26:41.415Z,7.43
2024-04-10T07:29:08.439Z,6.75
2024-04-10T07:31:37.979Z,7.57
2024-04-10T07:34:05.976Z,7.93
2024-04-10T07:36:37.045Z,7.00
2024-04-10T07:39:08.629Z,8.23
2024-04-10T07:41:37.795Z,8.35
2024-04-10T07:44:07.489Z,7.75
2024-04-10T07:46:34.710Z,6.65
2024-04-10T07:49:01.817Z,7.85
2024-04-10T07:51:29.405Z,7.20
2024-04-10T07:53:57.436Z,7.03
2024-04-10T07:56:24.630Z,7.43
2024-04-10T07:58:51.623Z,7.47
2024-04-10T08:01:19.383Z,8.50
2024-04-10T08:03:49.576Z,7.63
2024-04-10T08:06:16.539Z,8.25
2024-04-10T08:08:46.874Z,8.37
2024-04-10T08:11:15.405Z,7.32
2024-04-10T08:13:42.683Z,8.57
2024-04-10T08:16:13.181Z,8.15
2024-04-10T08:18:41.614Z,7.15
2024-04-10T08:21:10.127Z,6.45
2024-04-10T08:23:38.446Z,7.00
2024-04-10T08:26:18.454Z,6.27
2024-04-10T08:28:54.741Z,6.40
2024-04-10T08:31:26.168Z,7.78
2024-04-10T08:33:54.531Z,7.00
2024-04-10T08:36:22.608Z,7.78
2024-04-10T08:38:49.549Z,7.47
2024-04-10T08:41:17.650Z,6.77
2024-04-10T08:43:48.679Z,6.70
2024-04-10T08:46:18.271Z,6.70
2024-04-10T08:48:46.197Z,6.85
2024-04-10T08:51:14.266Z,6.18
2024-04-10T08:53:43.456Z,5.35
2024-04-10T08:56:16.806Z,6.43
2024-04-10T08:58:47.386Z,5.97
2024-04-10T09:01:27.923Z,5.80
2024-04-10T09:03:55.418Z,5.55
2024-04-10T09:06:22.428Z,5.20
2024-04-10T09:08:59.461Z,5.43
2024-04-10T09:11:26.368Z,4.87
2024-04-10T09:14:06.901Z,4.73
2024-04-10T09:16:34.442Z,5.20
2024-04-10T09:19:27.938Z,5.50
2024-04-10T09:21:59.163Z,3.80
2024-04-10T09:24:29.459Z,4.30
2024-04-10T09:26:56.619Z,4.03
2024-04-10T09:29:30.448Z,3.63
2024-04-10T09:32:06.317Z,4.32
2024-04-10T09:34:34.837Z,3.33
2024-04-10T09:37:02.298Z,3.60
2024-04-10T09:39:29.175Z,3.43
2024-04-10T09:42:00.312Z,3.00
2024-04-10T09:44:32.062Z,2.75
2024-04-10T09:47:00.048Z,3.00
2024-04-10T09:49:50.440Z,3.10
2024-04-10T09:52:17.480Z,3.40
2024-04-10T09:56:10.726Z,3.00
2024-04-10T09:58:37.957Z,3.35
2024-04-10T10:01:05.284Z,3.28
2024-04-10T10:03:32.793Z,2.40
2024-04-10T10:06:07.658Z,2.47
2024-04-10T10:08:37.722Z,2.00
2024-04-10T10:11:10.200Z,2.60
2024-04-10T10:13:45.522Z,2.42
2024-04-10T10:16:15.309Z,2.30
2024-04-10T10:18:42.270Z,2.20
2024-04-10T10:21:10.516Z,2.53
2024-04-10T10:23:41.894Z,2.28
2024-04-10T10:26:10.501Z,2.50
2024-04-10T10:28:37.925Z,2.00
2024-04-10T10:31:14.039Z,2.88
2024-04-10T10:33:43.087Z,2.30
2024-04-10T10:36:10.503Z,2.38
2024-04-10T10:38:38.017Z,2.30
2024-04-10T10:41:13.632Z,2.25
2024-04-10T10:43:44.254Z,2.30
2024-04-10T10:46:11.829Z,2.43
2024-04-10T10:48:38.766Z,2.47
2024-04-10T10:51:09.007Z,2.30
2024-04-10T10:53:35.978Z,1.98
2024-04-10T10:56:02.919Z,2.35
2024-04-10T10:58:30.885Z,2.00
2024-04-10T11:00:57.868Z,2.42
2024-04-10T11:03:30.113Z,2.53
2024-04-10T11:06:13.885Z,2.30
2024-04-10T11:08:41.102Z,2.50
2024-04-10T11:11:10.802Z,1.97
2024-04-10T11:13:50.574Z,2.00
2024-04-10T11:16:27.931Z,2.00
2024-04-10T11:18:55.689Z,1.95
2024-04-10T11:21:22.624Z,2.05
2024-04-10T11:23:49.522Z,1.87
2024-04-10T11:26:16.552Z,2.05
2024-04-10T11:28:44.552Z,2.33
2024-04-10T11:31:11.677Z,1.92
2024-04-10T11:33:38.722Z,2.17
2024-04-10T11:36:06.561Z,2.00
2024-04-10T11:38:33.579Z,1.98
2024-04-10T11:41:03.212Z,2.30
2024-04-10T11:43:30.804Z,2.10
2024-04-10T11:45:57.681Z,2.30
2024-04-10T11:48:24.816Z,1.73
2024-04-10T11:50:53.503Z,2.08
2024-04-10T11:53:20.448Z,2.03
2024-04-10T11:55:47.299Z,1.95
2024-04-10T11:58:14.162Z,2.53
2024-04-10T12:00:40.950Z,2.07
2024-04-10T12:03:07.950Z,2.10
2024-04-10T12:05:37.997Z,2.17
2024-04-10T12:08:07.168Z,2.40
2024-04-10T12:10:35.326Z,2.17
2024-04-10T12:13:04.523Z,2.50
2024-04-10T12:15:31.733Z,2.20
2024-04-10T12:17:58.662Z,2.38
2024-04-10T12:20:25.746Z,2.20
2024-04-10T12:22:52.612Z,2.53
2024-04-10T12:25:19.589Z,2.03
2024-04-10T12:27:47.810Z,1.80
2024-04-10T12:30:14.821Z,2.60
2024-04-10T12:32:41.887Z,1.90
2024-04-10T12:35:27.554Z,2.40
2024-04-10T12:38:10.423Z,2.20
2024-04-10T12:40:37.658Z,2.20
2024-04-10T12:43:04.987Z,2.40
2024-04-10T12:45:32.664Z,1.77
2024-04-10T12:47:59.857Z,2.60
2024-04-10T12:50:27.317Z,2.30
2024-04-10T12:52:54.355Z,2.20
2024-04-10T12:55:21.163Z,2.50
2024-04-10T12:57:48.550Z,2.33
2024-04-10T13:00:15.636Z,2.53
2024-04-10T13:02:45.193Z,2.27
2024-04-10T13:05:12.834Z,2.38
2024-04-10T13:07:39.916Z,2.00
2024-04-10T13:10:07.163Z,2.10
2024-04-10T13:12:34.464Z,2.33
2024-04-10T13:15:02.386Z,2.20
2024-04-10T13:17:32.024Z,2.50
2024-04-10T13:20:00.240Z,2.55
2024-04-10T13:22:27.062Z,2.38
2024-04-10T13:24:53.937Z,2.95
2024-04-10T13:27:20.735Z,2.27
2024-04-10T13:29:51.237Z,2.00
2024-04-10T13:32:18.297Z,2.30
2024-04-10T13:34:49.122Z,2.10
2024-04-10T13:37:26.386Z,1.88
2024-04-10T13:40:00.699Z,3.30
2024-04-10T13:42:27.619Z,2.42
2024-04-10T13:44:54.677Z,2.60
2024-04-10T13:47:21.670Z,2.33
2024-04-10T13:49:48.488Z,3.00
2024-04-10T13:52:15.324Z,2.60
2024-04-10T13:54:42.216Z,4.43
2024-04-10T13:57:09.239Z,2.42
2024-04-10T13:59:36.425Z,2.28
2024-04-10T14:02:03.290Z,2.38
2024-04-10T14:04:31.307Z,2.10
2024-04-10T14:06:59.053Z,2.42
2024-04-10T14:09:25.900Z,2.50
2024-04-10T14:11:52.818Z,2.50
2024-04-10T14:14:20.268Z,2.40
2024-04-10T14:16:49.647Z,2.20
2024-04-10T14:19:16.914Z,2.20
2024-04-10T14:21:43.789Z,2.95
2024-04-10T14:24:11.266Z,2.50
2024-04-10T14:26:38.343Z,2.80
2024-04-10T14:29:05.292Z,2.70
2024-04-10T14:31:32.226Z,3.20
2024-04-10T14:34:00.853Z,2.60
2024-04-10T14:36:28.560Z,2.30
2024-04-10T14:38:55.645Z,2.83
2024-04-10T14:41:22.604Z,2.70
2024-04-10T14:43:51.103Z,2.53
2024-04-10T14:46:20.407Z,2.67
2024-04-10T14:48:49.148Z,2.78
2024-04-10T14:51:16.105Z,2.40
2024-04-10T14:53:43.170Z,2.80
2024-04-10T14:56:14.809Z,2.42
2024-04-10T14:58:42.440Z,2.75
2024-04-10T15:01:12.514Z,2.78
2024-04-10T15:03:39.628Z,2.58
2024-04-10T15:06:07.034Z,2.50
2024-04-10T15:08:33.994Z,2.40
2024-04-10T15:11:01.077Z,2.60
2024-04-10T15:13:31.530Z,2.60
2024-04-10T15:15:58.697Z,2.47
2024-04-10T15:18:28.646Z,2.70
2024-04-10T15:20:56.740Z,2.80
2024-04-10T15:23:23.873Z,2.40
2024-04-10T15:25:54.738Z,2.88
2024-04-10T15:28:22.055Z,2.92
2024-04-10T15:31:02.267Z,2.50
2024-04-10T15:33:30.073Z,2.45
2024-04-10T15:36:04.483Z,2.40
2024-04-10T15:38:32.191Z,2.40
2024-04-10T15:40:59.638Z,2.63
2024-04-10T15:43:29.781Z,2.10
2024-04-10T15:45:57.577Z,2.70
2024-04-10T15:48:25.224Z,2.90
2024-04-10T15:50:52.674Z,2.40
2024-04-10T15:53:19.707Z,2.60
2024-04-10T15:55:46.582Z,2.73
2024-04-10T15:58:13.428Z,2.30
2024-04-10T16:00:40.337Z,2.70
2024-04-10T16:03:07.344Z,2.50
2024-04-10T16:05:35.087Z,2.38
2024-04-10T16:08:02.741Z,2.60
2024-04-10T16:10:29.600Z,2.30
2024-04-10T16:12:56.492Z,2.60
2024-04-10T16:15:26.540Z,2.70
2024-04-10T16:17:53.525Z,2.72
2024-04-10T16:20:26.834Z,2.40
2024-04-10T16:22:54.026Z,2.58
2024-04-10T16:25:21.566Z,2.65
2024-04-10T16:27:48.716Z,3.03
2024-04-10T16:30:16.102Z,3.13
2024-04-10T16:32:43.204Z,2.50
2024-04-10T16:35:10.577Z,2.75
2024-04-10T16:37:37.638Z,2.92
2024-04-10T16:40:04.918Z,2.63
2024-04-10T16:42:31.893Z,2.80
2024-04-10T16:44:58.984Z,3.17
2024-04-10T16:47:26.002Z,2.90
2024-04-10T16:49:53.615Z,2.80
2024-04-10T16:52:20.569Z,2.78
2024-04-10T16:54:47.897Z,2.67
2024-04-10T16:57:15.163Z,2.33
2024-04-10T16:59:42.631Z,2.88
2024-04-10T17:02:09.827Z,3.03
2024-04-10T17:04:37.257Z,2.92
2024-04-10T17:07:04.625Z,3.22
2024-04-10T17:09:32.303Z,2.93
2024-04-10T17:11:59.342Z,2.67
2024-04-10T17:14:26.454Z,3.53
2024-04-10T17:16:55.296Z,3.05
2024-04-10T17:19:40.726Z,2.90
2024-04-10T17:22:09.238Z,3.10
2024-04-10T17:24:36.905Z,2.80
2024-04-10T17:27:04.710Z,2.95
2024-04-10T17:29:32.897Z,2.58
2024-04-10T17:32:01.176Z,2.78
2024-04-10T17:34:28.820Z,2.73
2024-04-10T17:36:57.426Z,3.05
2024-04-10T17:39:27.799Z,3.03
2024-04-10T17:41:55.979Z,2.72
2024-04-10T17:44:24.816Z,2.75
2024-04-10T17:46:54.381Z,2.90
2024-04-10T17:49:22.190Z,2.78
2024-04-10T17:51:49.887Z,3.08
2024-04-10T17:54:17.844Z,3.17
2024-04-10T17:56:45.052Z,3.25
2024-04-10T17:59:12.610Z,3.03
2024-04-10T18:01:40.713Z,3.20
2024-04-10T18:04:08.244Z,3.05
2024-04-10T18:06:38.758Z,2.85
2024-04-10T18:09:06.928Z,3.03
2024-04-10T18:11:34.902Z,3.20
2024-04-10T18:14:04.262Z,2.90
2024-04-10T18:16:33.104Z,2.80
2024-04-10T18:19:01.898Z,3.15
2024-04-10T18:21:30.918Z,3.15
2024-04-10T18:23:58.836Z,3.17
2024-04-10T18:26:28.154Z,3.13
2024-04-10T18:28:55.850Z,3.30
2024-04-10T18:31:24.274Z,2.88
2024-04-10T18:33:51.912Z,3.08
2024-04-10T18:36:19.214Z,3.33
2024-04-10T18:38:47.853Z,3.25
2024-04-10T18:41:17.077Z,3.33
2024-04-10T18:43:47.663Z,2.75
2024-04-10T18:46:16.570Z,3.38
2024-04-10T18:48:44.979Z,2.67
2024-04-10T18:51:25.709Z,3.03
2024-04-10T18:53:54.297Z,3.05
2024-04-10T18:56:24.977Z,3.40
2024-04-10T18:58:53.950Z,3.50
2024-04-10T19:01:21.952Z,3.10
2024-04-10T19:03:51.774Z,3.30
2024-04-10T19:06:21.879Z,2.95
2024-04-10T19:08:51.675Z,3.33
2024-04-10T19:11:21.075Z,3.85
2024-04-10T19:13:49.134Z,3.20
2024-04-10T19:16:17.200Z,2.92
2024-04-10T19:18:45.495Z,3.85
2024-04-10T19:21:14.062Z,3.22
2024-04-10T19:23:43.124Z,3.15
2024-04-10T19:26:13.308Z,3.07
2024-04-10T19:28:43.953Z,2.90
2024-04-10T19:31:13.614Z,3.17
2024-04-10T19:33:46.970Z,3.28
2024-04-10T19:36:15.495Z,4.00
2024-04-10T19:38:46.852Z,3.83
2024-04-10T19:41:17.866Z,3.15
2024-04-10T19:43:52.295Z,3.38
2024-04-10T19:46:20.062Z,3.10
2024-04-10T19:48:48.273Z,3.88
2024-04-10T19:51:16.248Z,3.37
2024-04-10T19:53:45.920Z,3.40
2024-04-10T19:56:19.829Z,3.67
2024-04-10T19:58:48.431Z,3.70
2024-04-10T20:01:16.653Z,3.47
2024-04-10T20:03:46.538Z,3.20
2024-04-10T20:06:15.069Z,3.63
2024-04-10T20:08:43.208Z,3.30
2024-04-10T20:11:11.884Z,3.95
2024-04-10T20:13:43.269Z,3.13
2024-04-10T20:16:12.144Z,3.40
2024-04-10T20:18:42.869Z,3.25
2024-04-10T20:21:13.288Z,3.40
2024-04-10T20:23:42.368Z,3.70
2024-04-10T20:26:11.726Z,3.38
2024-04-10T20:28:38.809Z,3.20
2024-04-10T20:31:06.892Z,3.55
2024-04-10T20:33:35.010Z,3.40
2024-04-10T20:36:03.316Z,2.95
2024-04-10T20:38:31.377Z,3.45
2024-04-10T20:41:00.113Z,2.90
2024-04-10T20:43:29.677Z,3.35
2024-04-10T20:45:57.636Z,3.10
2024-04-10T20:48:28.990Z,2.78
2024-04-10T20:51:16.408Z,2.72
2024-04-10T20:53:46.747Z,2.60
2024-04-10T20:56:20.972Z,2.70
2024-04-10T20:58:50.135Z,2.97
2024-04-10T21:01:17.811Z,3.38
2024-04-10T21:03:47.088Z,3.35
2024-04-10T21:06:15.284Z,2.90
2024-04-10T21:09:03.837Z,3.05
2024-04-10T21:11:51.930Z,3.58
2024-04-10T21:14:37.612Z,2.60
2024-04-10T21:17:23.611Z,3.08
2024-04-10T21:20:09.177Z,2.63
2024-04-10T21:22:54.713Z,3.33
2024-04-10T21:25:47.745Z,2.83
2024-04-10T21:28:33.907Z,3.42
2024-04-10T21:31:23.514Z,3.10
2024-04-10T21:34:09.375Z,2.57
2024-04-10T21:36:54.643Z,2.80
2024-04-10T21:39:40.098Z,2.75
2024-04-10T21:42:25.677Z,2.80
2024-04-10T21:45:11.080Z,2.50
2024-04-10T21:47:56.617Z,2.67
2024-04-10T21:50:41.980Z,2.72
2024-04-10T21:53:27.433Z,3.03
2024-04-10T21:56:12.936Z,2.83
2024-04-10T21:59:00.952Z,3.22
2024-04-10T22:02:00.304Z,2.47
2024-04-10T22:04:51.274Z,2.58
2024-04-10T22:07:37.897Z,2.65
2024-04-10T22:10:05.196Z,2.40
2024-04-10T22:12:32.590Z,2.60
2024-04-10T22:15:02.329Z,2.50
2024-04-10T22:17:47.715Z,3.03
2024-04-10T22:20:33.765Z,2.97
2024-04-10T22:23:19.324Z,3.25
2024-04-10T22:25:52.519Z,3.35
2024-04-10T22:28:23.441Z,2.80
2024-04-10T22:30:50.695Z,2.97
2024-04-10T22:33:19.464Z,2.85
2024-04-10T22:35:59.700Z,3.00
2024-04-10T22:38:27.191Z,2.78
2024-04-10T22:40:54.079Z,2.70
2024-04-10T22:43:23.090Z,2.90
2024-04-10T22:45:50.001Z,2.53
2024-04-10T22:48:17.256Z,3.35
2024-04-10T22:50:44.315Z,2.85
2024-04-10T22:53:11.445Z,2.20
2024-04-10T22:55:38.344Z,2.80
2024-04-10T22:58:05.309Z,3.22
2024-04-10T23:00:33.985Z,2.97
2024-04-10T23:03:00.974Z,3.33
2024-04-10T23:05:44.450Z,3.03
2024-04-10T23:08:29.563Z,2.88
2024-04-10T23:10:59.107Z,2.70
2024-04-10T23:13:26.117Z,3.00
2024-04-10T23:15:52.948Z,2.85
2024-04-10T23:18:31.056Z,2.33
2024-04-10T23:21:05.581Z,2.90
2024-04-10T23:23:32.458Z,3.13
2024-04-10T23:25:59.360Z,2.90
2024-04-10T23:28:26.182Z,2.78
2024-04-10T23:30:53.035Z,2.83
2024-04-10T23:33:20.156Z,3.05
2024-04-10T23:35:47.195Z,3.28
2024-04-10T23:38:14.068Z,2.83
2024-04-10T23:40:43.506Z,3.20
2024-04-10T23:43:10.668Z,2.80
2024-04-10T23:45:37.991Z,2.70
2024-04-10T23:48:05.311Z,3.08
2024-04-10T23:50:32.234Z,2.88
2024-04-10T23:53:01.035Z,3.45
2024-04-10T23:55:27.945Z,3.13
2024-04-10T23:57:59.185Z,2.95
